Hlavní strana
METAR-TAF:

METAR-TAF

Letiště :

Niamey, Niger

zeměpisná šířka: 13-29N, zeměpisná délka: 002-10E, výška: 223 m

Aktuální stav počasí

Zpráva byla vytvořena před 1 hodinou a 7 minutami, v 21:00 UTC
Východoseverovýchodní vítr 7 kt
Teplota 23°C
Vlhkost vzduchu 11%
Tlak 1014 hPa
Viditelnost: 6000 m

METAR: DRRN 222100Z 06007KT 6000 NSC 23/M09 Q1014 NOSIG

Čas: 23:07 (22:07 UTC)

Předpověď počasí

Zpráva byla vytvořena před 5 hodinami a 7 minutami, v 17:00 UTC
Předpověď platná od 22 v 18 UTC do 23 v 24 UTC
Východní vítr 8 kt
Viditelnost: 6000 m
Dočasný
od 22 v 18 UTC do 22 v 20 UTC
Viditelnost: 3500 m
rozsáhlý prach
Dočasný
od 23 v 06 UTC do 23 v 12 UTC
Východní vítr 18 kt
Viditelnost: 3000 m
zvířený prach

TAF: DRRN 221700Z 2218/2324 08008KT 6000 NSC TEMPO 2218/2220 3500 DU TEMPO 2306/2312 10018KT 3000 BLDU

Stav a předpovědi počasí z více než 4 000 letišť (zprávy METAR a TAF).

Červené a žluté tečky na mapě představují dostupné meteorologické stanice.

Když kurzor umístíte na tečku, zobrazí se název stanice.

Pak kliknutím zobrazíte stav a předpověď počasí.

Chcete-li změnit mapu, kliknutím na zelené tlačítko se znaménkem +mapu přiblížíte, kliknutím na zelené tlačítko se znaménkem – mapu oddálíte a kliknutím na zelené šipky přejdete na sousední mapy.


METAR-TAF: